sensor_id;sensor_type;location;lat;lon;timestamp;temperature;humidity
22006;DHT22;11167;46.988;15.470;2023-08-07T00:01:55;19.70;86.40
22006;DHT22;11167;46.988;15.470;2023-08-07T00:03:56;19.60;86.30
22006;DHT22;11167;46.988;15.470;2023-08-07T00:05:57;19.60;86.40
22006;DHT22;11167;46.988;15.470;2023-08-07T00:07:59;19.60;86.40
22006;DHT22;11167;46.988;15.470;2023-08-07T00:09:59;19.60;86.40
22006;DHT22;11167;46.988;15.470;2023-08-07T00:12:03;19.60;86.40
22006;DHT22;11167;46.988;15.470;2023-08-07T00:14:04;19.60;86.40
22006;DHT22;11167;46.988;15.470;2023-08-07T00:16:05;19.50;86.50
22006;DHT22;11167;46.988;15.470;2023-08-07T00:18:06;19.50;86.30
22006;DHT22;11167;46.988;15.470;2023-08-07T00:20:08;19.50;86.30
22006;DHT22;11167;46.988;15.470;2023-08-07T00:22:09;19.50;85.90
22006;DHT22;11167;46.988;15.470;2023-08-07T00:24:10;19.40;86.40
22006;DHT22;11167;46.988;15.470;2023-08-07T00:26:11;19.40;86.40
22006;DHT22;11167;46.988;15.470;2023-08-07T00:28:12;19.40;86.30
22006;DHT22;11167;46.988;15.470;2023-08-07T00:30:13;19.40;86.30
22006;DHT22;11167;46.988;15.470;2023-08-07T00:32:14;19.40;86.40
22006;DHT22;11167;46.988;15.470;2023-08-07T00:34:15;19.30;86.30
22006;DHT22;11167;46.988;15.470;2023-08-07T00:36:16;19.30;86.30
22006;DHT22;11167;46.988;15.470;2023-08-07T00:38:17;19.30;86.30
22006;DHT22;11167;46.988;15.470;2023-08-07T00:40:18;19.30;86.30
22006;DHT22;11167;46.988;15.470;2023-08-07T00:42:19;19.30;86.30
22006;DHT22;11167;46.988;15.470;2023-08-07T00:44:20;19.30;86.40
22006;DHT22;11167;46.988;15.470;2023-08-07T00:46:21;19.20;86.30
22006;DHT22;11167;46.988;15.470;2023-08-07T00:48:22;19.20;86.30
22006;DHT22;11167;46.988;15.470;2023-08-07T00:50:24;19.20;86.30
22006;DHT22;11167;46.988;15.470;2023-08-07T00:52:25;19.20;86.30
22006;DHT22;11167;46.988;15.470;2023-08-07T00:54:26;19.10;86.30
22006;DHT22;11167;46.988;15.470;2023-08-07T00:56:28;19.10;86.30
22006;DHT22;11167;46.988;15.470;2023-08-07T00:58:31;19.10;86.10
22006;DHT22;11167;46.988;15.470;2023-08-07T01:00:32;19.20;86.40
22006;DHT22;11167;46.988;15.470;2023-08-07T01:02:33;19.10;86.30
22006;DHT22;11167;46.988;15.470;2023-08-07T01:04:34;19.10;86.30
22006;DHT22;11167;46.988;15.470;2023-08-07T01:06:35;19.10;86.30
22006;DHT22;11167;46.988;15.470;2023-08-07T01:08:36;19.00;86.30
22006;DHT22;11167;46.988;15.470;2023-08-07T01:11:07;19.00;86.80
22006;DHT22;11167;46.988;15.470;2023-08-07T01:13:27;19.00;86.30
22006;DHT22;11167;46.988;15.470;2023-08-07T01:15:30;19.00;86.30
22006;DHT22;11167;46.988;15.470;2023-08-07T01:17:31;18.90;86.30
22006;DHT22;11167;46.988;15.470;2023-08-07T01:19:35;18.90;86.40
22006;DHT22;11167;46.988;15.470;2023-08-07T01:21:37;18.90;86.40
22006;DHT22;11167;46.988;15.470;2023-08-07T01:23:39;18.90;86.40
22006;DHT22;11167;46.988;15.470;2023-08-07T01:25:40;18.90;86.40
22006;DHT22;11167;46.988;15.470;2023-08-07T01:27:51;18.90;86.40
22006;DHT22;11167;46.988;15.470;2023-08-07T01:30:09;18.90;86.40
22006;DHT22;11167;46.988;15.470;2023-08-07T01:32:07;18.80;86.40
22006;DHT22;11167;46.988;15.470;2023-08-07T01:34:11;18.80;86.40
22006;DHT22;11167;46.988;15.470;2023-08-07T01:36:14;18.80;86.40
22006;DHT22;11167;46.988;15.470;2023-08-07T01:38:17;18.70;86.40
22006;DHT22;11167;46.988;15.470;2023-08-07T01:40:21;18.70;86.40
22006;DHT22;11167;46.988;15.470;2023-08-07T01:42:24;18.70;86.50
22006;DHT22;11167;46.988;15.470;2023-08-07T01:44:25;18.70;86.40
22006;DHT22;11167;46.988;15.470;2023-08-07T01:46:27;18.70;86.40
22006;DHT22;11167;46.988;15.470;2023-08-07T01:48:28;18.70;86.50
22006;DHT22;11167;46.988;15.470;2023-08-07T01:50:30;18.70;86.40
22006;DHT22;11167;46.988;15.470;2023-08-07T01:52:32;18.60;86.40
22006;DHT22;11167;46.988;15.470;2023-08-07T01:54:33;18.60;87.20
22006;DHT22;11167;46.988;15.470;2023-08-07T01:56:35;18.60;86.40
22006;DHT22;11167;46.988;15.470;2023-08-07T01:58:36;18.60;86.40
22006;DHT22;11167;46.988;15.470;2023-08-07T02:00:56;18.60;86.40
22006;DHT22;11167;46.988;15.470;2023-08-07T02:02:57;18.60;86.40
22006;DHT22;11167;46.988;15.470;2023-08-07T02:04:58;18.50;86.40
22006;DHT22;11167;46.988;15.470;2023-08-07T02:06:59;18.50;86.40
22006;DHT22;11167;46.988;15.470;2023-08-07T02:09:00;18.50;86.40
22006;DHT22;11167;46.988;15.470;2023-08-07T02:11:01;18.50;86.40
22006;DHT22;11167;46.988;15.470;2023-08-07T02:13:03;18.50;86.40
22006;DHT22;11167;46.988;15.470;2023-08-07T02:15:05;18.50;86.40
22006;DHT22;11167;46.988;15.470;2023-08-07T02:17:06;18.40;86.40
22006;DHT22;11167;46.988;15.470;2023-08-07T02:19:07;18.40;86.40
22006;DHT22;11167;46.988;15.470;2023-08-07T02:21:09;18.40;86.40
22006;DHT22;11167;46.988;15.470;2023-08-07T02:23:10;18.40;86.40
22006;DHT22;11167;46.988;15.470;2023-08-07T02:25:11;18.40;86.40
22006;DHT22;11167;46.988;15.470;2023-08-07T02:27:12;18.30;86.40
22006;DHT22;11167;46.988;15.470;2023-08-07T02:29:13;18.40;86.40
22006;DHT22;11167;46.988;15.470;2023-08-07T02:31:14;18.30;86.40
22006;DHT22;11167;46.988;15.470;2023-08-07T02:33:15;18.30;86.70
22006;DHT22;11167;46.988;15.470;2023-08-07T02:35:16;18.30;86.40
22006;DHT22;11167;46.988;15.470;2023-08-07T02:37:17;18.30;86.40
22006;DHT22;11167;46.988;15.470;2023-08-07T02:39:18;18.30;86.50
22006;DHT22;11167;46.988;15.470;2023-08-07T02:41:19;18.20;86.40
22006;DHT22;11167;46.988;15.470;2023-08-07T02:43:20;18.20;86.40
22006;DHT22;11167;46.988;15.470;2023-08-07T02:45:21;18.20;86.40
22006;DHT22;11167;46.988;15.470;2023-08-07T02:47:22;18.20;86.40
22006;DHT22;11167;46.988;15.470;2023-08-07T02:49:24;18.20;86.40
22006;DHT22;11167;46.988;15.470;2023-08-07T02:51:25;18.10;86.40
22006;DHT22;11167;46.988;15.470;2023-08-07T02:53:26;18.10;86.40
22006;DHT22;11167;46.988;15.470;2023-08-07T02:55:27;18.10;86.40
22006;DHT22;11167;46.988;15.470;2023-08-07T02:57:29;18.10;86.40
22006;DHT22;11167;46.988;15.470;2023-08-07T02:59:30;18.10;86.50
22006;DHT22;11167;46.988;15.470;2023-08-07T03:01:31;18.10;86.50
22006;DHT22;11167;46.988;15.470;2023-08-07T03:03:32;18.10;86.50
22006;DHT22;11167;46.988;15.470;2023-08-07T03:05:33;18.10;86.50
22006;DHT22;11167;46.988;15.470;2023-08-07T03:07:35;18.00;86.50
22006;DHT22;11167;46.988;15.470;2023-08-07T03:09:36;18.00;86.50
22006;DHT22;11167;46.988;15.470;2023-08-07T03:11:38;18.00;86.50
22006;DHT22;11167;46.988;15.470;2023-08-07T03:13:39;18.00;87.30
22006;DHT22;11167;46.988;15.470;2023-08-07T03:15:40;18.00;86.50
22006;DHT22;11167;46.988;15.470;2023-08-07T03:17:41;18.00;86.50
22006;DHT22;11167;46.988;15.470;2023-08-07T03:19:43;17.90;86.50
22006;DHT22;11167;46.988;15.470;2023-08-07T03:21:44;17.90;86.50
22006;DHT22;11167;46.988;15.470;2023-08-07T03:23:45;17.90;86.50
22006;DHT22;11167;46.988;15.470;2023-08-07T03:25:46;17.90;86.60
22006;DHT22;11167;46.988;15.470;2023-08-07T03:27:47;17.80;86.50
22006;DHT22;11167;46.988;15.470;2023-08-07T03:29:48;17.80;87.20
22006;DHT22;11167;46.988;15.470;2023-08-07T03:31:50;17.80;86.50
22006;DHT22;11167;46.988;15.470;2023-08-07T03:33:52;17.80;86.50
22006;DHT22;11167;46.988;15.470;2023-08-07T03:35:54;17.80;86.60
22006;DHT22;11167;46.988;15.470;2023-08-07T03:37:55;17.80;87.30
22006;DHT22;11167;46.988;15.470;2023-08-07T03:39:56;17.80;86.60
22006;DHT22;11167;46.988;15.470;2023-08-07T03:41:57;17.70;86.50
22006;DHT22;11167;46.988;15.470;2023-08-07T03:43:58;17.70;86.60
22006;DHT22;11167;46.988;15.470;2023-08-07T03:46:00;17.70;86.50
22006;DHT22;11167;46.988;15.470;2023-08-07T03:48:01;17.70;86.50
22006;DHT22;11167;46.988;15.470;2023-08-07T03:50:05;17.70;86.50
22006;DHT22;11167;46.988;15.470;2023-08-07T03:52:07;17.70;86.50
22006;DHT22;11167;46.988;15.470;2023-08-07T03:54:08;17.60;86.60
22006;DHT22;11167;46.988;15.470;2023-08-07T03:56:09;17.60;86.50
22006;DHT22;11167;46.988;15.470;2023-08-07T03:58:10;17.60;87.30
22006;DHT22;11167;46.988;15.470;2023-08-07T04:00:11;17.50;86.50
22006;DHT22;11167;46.988;15.470;2023-08-07T04:02:13;17.60;86.50
22006;DHT22;11167;46.988;15.470;2023-08-07T04:04:14;17.60;86.50
22006;DHT22;11167;46.988;15.470;2023-08-07T04:06:15;17.50;86.50
22006;DHT22;11167;46.988;15.470;2023-08-07T04:08:16;17.50;86.50
22006;DHT22;11167;46.988;15.470;2023-08-07T04:10:18;17.50;86.50
22006;DHT22;11167;46.988;15.470;2023-08-07T04:12:20;17.40;86.50
22006;DHT22;11167;46.988;15.470;2023-08-07T04:14:21;17.50;86.60
22006;DHT22;11167;46.988;15.470;2023-08-07T04:16:21;17.50;86.60
22006;DHT22;11167;46.988;15.470;2023-08-07T04:18:23;17.50;86.60
22006;DHT22;11167;46.988;15.470;2023-08-07T04:20:24;17.40;86.50
22006;DHT22;11167;46.988;15.470;2023-08-07T04:22:25;17.40;86.60
22006;DHT22;11167;46.988;15.470;2023-08-07T04:24:26;17.40;86.90
22006;DHT22;11167;46.988;15.470;2023-08-07T04:26:27;17.40;86.60
22006;DHT22;11167;46.988;15.470;2023-08-07T04:28:29;17.30;86.60
22006;DHT22;11167;46.988;15.470;2023-08-07T04:30:30;17.30;86.50
22006;DHT22;11167;46.988;15.470;2023-08-07T04:32:31;17.30;86.60
22006;DHT22;11167;46.988;15.470;2023-08-07T04:34:32;17.30;86.60
22006;DHT22;11167;46.988;15.470;2023-08-07T04:36:33;17.30;86.60
22006;DHT22;11167;46.988;15.470;2023-08-07T04:38:34;17.30;86.60
22006;DHT22;11167;46.988;15.470;2023-08-07T04:40:35;17.30;86.60
22006;DHT22;11167;46.988;15.470;2023-08-07T04:42:50;17.20;86.70
22006;DHT22;11167;46.988;15.470;2023-08-07T04:44:51;17.10;86.60
22006;DHT22;11167;46.988;15.470;2023-08-07T04:46:52;17.20;86.70
22006;DHT22;11167;46.988;15.470;2023-08-07T04:48:53;17.20;86.70
22006;DHT22;11167;46.988;15.470;2023-08-07T04:50:55;17.20;86.70
22006;DHT22;11167;46.988;15.470;2023-08-07T04:52:56;17.20;86.70
22006;DHT22;11167;46.988;15.470;2023-08-07T04:54:57;17.10;86.70
22006;DHT22;11167;46.988;15.470;2023-08-07T04:56:58;17.10;86.80
22006;DHT22;11167;46.988;15.470;2023-08-07T04:58:59;17.10;86.70
22006;DHT22;11167;46.988;15.470;2023-08-07T05:01:02;17.10;86.70
22006;DHT22;11167;46.988;15.470;2023-08-07T05:03:04;17.10;86.70
22006;DHT22;11167;46.988;15.470;2023-08-07T05:05:05;17.10;86.80
22006;DHT22;11167;46.988;15.470;2023-08-07T05:07:06;17.10;86.80
22006;DHT22;11167;46.988;15.470;2023-08-07T05:09:08;17.10;86.80
22006;DHT22;11167;46.988;15.470;2023-08-07T05:11:09;17.00;86.80
22006;DHT22;11167;46.988;15.470;2023-08-07T05:13:10;17.00;86.80
22006;DHT22;11167;46.988;15.470;2023-08-07T05:15:11;17.00;87.10
22006;DHT22;11167;46.988;15.470;2023-08-07T05:17:12;17.00;86.90
22006;DHT22;11167;46.988;15.470;2023-08-07T05:19:13;17.00;86.90
22006;DHT22;11167;46.988;15.470;2023-08-07T05:21:14;17.00;86.90
22006;DHT22;11167;46.988;15.470;2023-08-07T05:23:16;17.00;86.90
22006;DHT22;11167;46.988;15.470;2023-08-07T05:25:19;17.00;86.90
22006;DHT22;11167;46.988;15.470;2023-08-07T05:27:21;17.00;87.00
22006;DHT22;11167;46.988;15.470;2023-08-07T05:29:22;16.90;87.90
22006;DHT22;11167;46.988;15.470;2023-08-07T05:31:24;16.90;86.90
22006;DHT22;11167;46.988;15.470;2023-08-07T05:33:25;16.90;86.90
22006;DHT22;11167;46.988;15.470;2023-08-07T05:35:26;16.90;86.90
22006;DHT22;11167;46.988;15.470;2023-08-07T05:37:27;16.90;86.90
22006;DHT22;11167;46.988;15.470;2023-08-07T05:39:30;16.90;86.80
22006;DHT22;11167;46.988;15.470;2023-08-07T05:41:32;16.90;87.10
22006;DHT22;11167;46.988;15.470;2023-08-07T05:43:33;16.90;87.00
22006;DHT22;11167;46.988;15.470;2023-08-07T05:45:34;16.90;87.00
22006;DHT22;11167;46.988;15.470;2023-08-07T05:47:35;16.90;87.10
22006;DHT22;11167;46.988;15.470;2023-08-07T05:49:36;16.90;87.10
22006;DHT22;11167;46.988;15.470;2023-08-07T05:51:37;16.90;87.10
22006;DHT22;11167;46.988;15.470;2023-08-07T05:53:38;16.80;87.00
22006;DHT22;11167;46.988;15.470;2023-08-07T05:55:40;16.80;87.00
22006;DHT22;11167;46.988;15.470;2023-08-07T05:57:44;16.80;87.10
22006;DHT22;11167;46.988;15.470;2023-08-07T05:59:45;16.80;87.10
22006;DHT22;11167;46.988;15.470;2023-08-07T06:01:46;16.80;87.10
22006;DHT22;11167;46.988;15.470;2023-08-07T06:03:47;16.80;87.10
22006;DHT22;11167;46.988;15.470;2023-08-07T06:05:48;16.80;87.10
22006;DHT22;11167;46.988;15.470;2023-08-07T06:07:50;16.80;87.10
22006;DHT22;11167;46.988;15.470;2023-08-07T06:09:52;16.80;87.30
22006;DHT22;11167;46.988;15.470;2023-08-07T06:11:53;16.80;87.20
22006;DHT22;11167;46.988;15.470;2023-08-07T06:13:55;16.80;87.20
22006;DHT22;11167;46.988;15.470;2023-08-07T06:15:56;16.80;87.30
22006;DHT22;11167;46.988;15.470;2023-08-07T06:17:57;16.70;87.10
22006;DHT22;11167;46.988;15.470;2023-08-07T06:19:58;16.70;87.20
22006;DHT22;11167;46.988;15.470;2023-08-07T06:22:00;16.70;87.20
22006;DHT22;11167;46.988;15.470;2023-08-07T06:24:01;16.70;87.20
22006;DHT22;11167;46.988;15.470;2023-08-07T06:26:02;16.70;87.20
22006;DHT22;11167;46.988;15.470;2023-08-07T06:28:07;16.70;87.20
22006;DHT22;11167;46.988;15.470;2023-08-07T06:30:10;16.70;87.30
22006;DHT22;11167;46.988;15.470;2023-08-07T06:32:11;16.70;87.30
22006;DHT22;11167;46.988;15.470;2023-08-07T06:34:12;16.70;87.30
22006;DHT22;11167;46.988;15.470;2023-08-07T06:36:13;16.70;87.30
22006;DHT22;11167;46.988;15.470;2023-08-07T06:38:14;16.70;87.30
22006;DHT22;11167;46.988;15.470;2023-08-07T06:40:15;16.70;87.30
22006;DHT22;11167;46.988;15.470;2023-08-07T06:42:16;16.70;87.40
22006;DHT22;11167;46.988;15.470;2023-08-07T06:44:17;16.70;86.70
22006;DHT22;11167;46.988;15.470;2023-08-07T06:46:19;16.70;87.40
22006;DHT22;11167;46.988;15.470;2023-08-07T06:48:22;16.70;87.30
22006;DHT22;11167;46.988;15.470;2023-08-07T06:50:24;16.70;87.40
22006;DHT22;11167;46.988;15.470;2023-08-07T06:52:25;16.70;87.40
22006;DHT22;11167;46.988;15.470;2023-08-07T06:54:27;16.70;87.30
22006;DHT22;11167;46.988;15.470;2023-08-07T06:56:28;16.70;87.60
22006;DHT22;11167;46.988;15.470;2023-08-07T06:58:29;16.70;87.40
22006;DHT22;11167;46.988;15.470;2023-08-07T07:00:30;16.70;87.40
22006;DHT22;11167;46.988;15.470;2023-08-07T07:02:32;16.70;87.40
22006;DHT22;11167;46.988;15.470;2023-08-07T07:04:33;16.70;87.40
22006;DHT22;11167;46.988;15.470;2023-08-07T07:06:34;16.70;87.50
22006;DHT22;11167;46.988;15.470;2023-08-07T07:08:35;16.70;87.50
22006;DHT22;11167;46.988;15.470;2023-08-07T07:10:36;16.70;87.50
22006;DHT22;11167;46.988;15.470;2023-08-07T07:12:38;16.70;87.50
22006;DHT22;11167;46.988;15.470;2023-08-07T07:14:39;16.70;87.50
22006;DHT22;11167;46.988;15.470;2023-08-07T07:16:40;16.70;87.50
22006;DHT22;11167;46.988;15.470;2023-08-07T07:18:43;16.70;88.30
22006;DHT22;11167;46.988;15.470;2023-08-07T07:20:44;16.70;87.50
22006;DHT22;11167;46.988;15.470;2023-08-07T07:22:45;16.70;87.50
22006;DHT22;11167;46.988;15.470;2023-08-07T07:24:47;16.70;87.60
22006;DHT22;11167;46.988;15.470;2023-08-07T07:26:48;16.70;87.50
22006;DHT22;11167;46.988;15.470;2023-08-07T07:28:50;16.70;87.50
22006;DHT22;11167;46.988;15.470;2023-08-07T07:30:55;16.70;87.50
22006;DHT22;11167;46.988;15.470;2023-08-07T07:32:59;16.70;87.50
22006;DHT22;11167;46.988;15.470;2023-08-07T07:35:02;16.70;87.40
22006;DHT22;11167;46.988;15.470;2023-08-07T07:37:25;16.70;87.50
22006;DHT22;11167;46.988;15.470;2023-08-07T07:39:23;16.70;87.40
22006;DHT22;11167;46.988;15.470;2023-08-07T07:41:25;16.70;87.40
22006;DHT22;11167;46.988;15.470;2023-08-07T07:43:29;16.70;87.40
22006;DHT22;11167;46.988;15.470;2023-08-07T07:45:32;16.70;87.50
22006;DHT22;11167;46.988;15.470;2023-08-07T07:47:42;16.70;87.50
22006;DHT22;11167;46.988;15.470;2023-08-07T07:49:47;16.70;87.50
22006;DHT22;11167;46.988;15.470;2023-08-07T07:52:03;16.70;87.50
22006;DHT22;11167;46.988;15.470;2023-08-07T07:54:10;16.70;87.50
22006;DHT22;11167;46.988;15.470;2023-08-07T07:56:18;16.70;87.50
22006;DHT22;11167;46.988;15.470;2023-08-07T07:58:23;16.70;87.50
22006;DHT22;11167;46.988;15.470;2023-08-07T08:00:28;16.70;87.40
22006;DHT22;11167;46.988;15.470;2023-08-07T08:02:46;16.70;87.30
22006;DHT22;11167;46.988;15.470;2023-08-07T08:04:59;16.70;87.30
22006;DHT22;11167;46.988;15.470;2023-08-07T08:07:06;16.70;87.30
22006;DHT22;11167;46.988;15.470;2023-08-07T08:09:26;16.70;87.30
22006;DHT22;11167;46.988;15.470;2023-08-07T08:11:28;16.70;87.30
22006;DHT22;11167;46.988;15.470;2023-08-07T08:13:29;16.70;87.30
22006;DHT22;11167;46.988;15.470;2023-08-07T08:15:30;16.70;87.30
22006;DHT22;11167;46.988;15.470;2023-08-07T08:17:31;16.70;88.10
22006;DHT22;11167;46.988;15.470;2023-08-07T08:19:32;16.70;87.20
22006;DHT22;11167;46.988;15.470;2023-08-07T08:30:39;16.60;87.00
22006;DHT22;11167;46.988;15.470;2023-08-07T09:03:47;16.80;87.20
22006;DHT22;11167;46.988;15.470;2023-08-07T09:05:50;16.80;87.10
22006;DHT22;11167;46.988;15.470;2023-08-07T09:07:53;16.80;87.00
22006;DHT22;11167;46.988;15.470;2023-08-07T09:09:56;16.80;86.70
22006;DHT22;11167;46.988;15.470;2023-08-07T09:11:58;16.80;86.40
22006;DHT22;11167;46.988;15.470;2023-08-07T09:14:02;16.80;86.20
22006;DHT22;11167;46.988;15.470;2023-08-07T09:16:07;16.80;86.10
22006;DHT22;11167;46.988;15.470;2023-08-07T09:18:10;16.80;86.00
22006;DHT22;11167;46.988;15.470;2023-08-07T09:20:12;16.80;85.90
22006;DHT22;11167;46.988;15.470;2023-08-07T09:22:15;16.80;85.90
22006;DHT22;11167;46.988;15.470;2023-08-07T09:24:16;16.80;85.50
22006;DHT22;11167;46.988;15.470;2023-08-07T09:26:22;16.80;86.50
22006;DHT22;11167;46.988;15.470;2023-08-07T09:28:24;16.80;85.60
22006;DHT22;11167;46.988;15.470;2023-08-07T09:30:29;16.80;85.60
22006;DHT22;11167;46.988;15.470;2023-08-07T09:32:30;16.80;85.60
22006;DHT22;11167;46.988;15.470;2023-08-07T09:34:31;16.80;85.60
22006;DHT22;11167;46.988;15.470;2023-08-07T09:36:33;16.80;85.60
22006;DHT22;11167;46.988;15.470;2023-08-07T09:38:34;16.80;85.60
22006;DHT22;11167;46.988;15.470;2023-08-07T09:40:36;16.80;85.60
22006;DHT22;11167;46.988;15.470;2023-08-07T09:42:40;16.80;85.60
22006;DHT22;11167;46.988;15.470;2023-08-07T09:44:43;16.80;85.00
22006;DHT22;11167;46.988;15.470;2023-08-07T09:46:47;16.90;85.50
22006;DHT22;11167;46.988;15.470;2023-08-07T09:48:48;16.90;85.20
22006;DHT22;11167;46.988;15.470;2023-08-07T09:50:51;16.90;85.00
22006;DHT22;11167;46.988;15.470;2023-08-07T09:52:59;16.90;84.90
22006;DHT22;11167;46.988;15.470;2023-08-07T09:55:01;16.90;84.90
22006;DHT22;11167;46.988;15.470;2023-08-07T09:57:04;16.90;84.80
22006;DHT22;11167;46.988;15.470;2023-08-07T09:59:07;16.90;85.00
22006;DHT22;11167;46.988;15.470;2023-08-07T10:01:13;16.90;82.80
22006;DHT22;11167;46.988;15.470;2023-08-07T10:04:00;16.90;85.00
22006;DHT22;11167;46.988;15.470;2023-08-07T10:08:19;16.90;85.10
22006;DHT22;11167;46.988;15.470;2023-08-07T10:10:23;16.90;85.00
22006;DHT22;11167;46.988;15.470;2023-08-07T10:12:26;16.90;84.90
22006;DHT22;11167;46.988;15.470;2023-08-07T10:14:29;17.00;84.90
22006;DHT22;11167;46.988;15.470;2023-08-07T10:16:31;17.00;84.90
22006;DHT22;11167;46.988;15.470;2023-08-07T10:18:34;17.00;84.90
22006;DHT22;11167;46.988;15.470;2023-08-07T10:20:38;17.00;82.80
22006;DHT22;11167;46.988;15.470;2023-08-07T10:22:42;17.00;84.90
22006;DHT22;11167;46.988;15.470;2023-08-07T10:24:47;17.00;85.00
22006;DHT22;11167;46.988;15.470;2023-08-07T10:26:51;17.10;85.00
22006;DHT22;11167;46.988;15.470;2023-08-07T10:28:53;17.10;85.00
22006;DHT22;11167;46.988;15.470;2023-08-07T10:30:55;17.10;84.90
22006;DHT22;11167;46.988;15.470;2023-08-07T10:32:58;17.10;85.00
22006;DHT22;11167;46.988;15.470;2023-08-07T10:35:04;17.10;84.90
22006;DHT22;11167;46.988;15.470;2023-08-07T10:37:07;17.20;84.90
22006;DHT22;11167;46.988;15.470;2023-08-07T10:39:19;17.20;85.00
22006;DHT22;11167;46.988;15.470;2023-08-07T10:41:20;17.20;85.00
22006;DHT22;11167;46.988;15.470;2023-08-07T10:43:24;17.20;85.00
22006;DHT22;11167;46.988;15.470;2023-08-07T10:45:27;17.20;85.00
22006;DHT22;11167;46.988;15.470;2023-08-07T10:47:33;17.30;85.00
22006;DHT22;11167;46.988;15.470;2023-08-07T10:49:41;17.30;84.80
22006;DHT22;11167;46.988;15.470;2023-08-07T10:51:39;17.30;85.00
22006;DHT22;11167;46.988;15.470;2023-08-07T10:53:47;17.30;85.00
22006;DHT22;11167;46.988;15.470;2023-08-07T10:55:56;17.30;84.80
22006;DHT22;11167;46.988;15.470;2023-08-07T10:58:02;17.30;84.80
22006;DHT22;11167;46.988;15.470;2023-08-07T11:00:05;17.40;85.00
22006;DHT22;11167;46.988;15.470;2023-08-07T11:02:11;17.40;84.90
22006;DHT22;11167;46.988;15.470;2023-08-07T11:04:17;17.40;84.80
22006;DHT22;11167;46.988;15.470;2023-08-07T11:06:21;17.40;84.60
22006;DHT22;11167;46.988;15.470;2023-08-07T11:08:42;17.40;84.50
22006;DHT22;11167;46.988;15.470;2023-08-07T11:10:40;17.50;82.10
22006;DHT22;11167;46.988;15.470;2023-08-07T11:12:41;17.40;84.30
22006;DHT22;11167;46.988;15.470;2023-08-07T11:14:46;17.50;84.40
22006;DHT22;11167;46.988;15.470;2023-08-07T11:16:49;17.50;84.60
22006;DHT22;11167;46.988;15.470;2023-08-07T11:18:53;17.50;85.30
22006;DHT22;11167;46.988;15.470;2023-08-07T11:21:14;17.50;84.60
22006;DHT22;11167;46.988;15.470;2023-08-07T11:23:16;17.60;84.50
22006;DHT22;11167;46.988;15.470;2023-08-07T11:25:28;17.60;84.50
22006;DHT22;11167;46.988;15.470;2023-08-07T11:27:36;17.60;84.40
22006;DHT22;11167;46.988;15.470;2023-08-07T11:29:47;17.60;84.20
22006;DHT22;11167;46.988;15.470;2023-08-07T11:31:56;17.70;84.50
22006;DHT22;11167;46.988;15.470;2023-08-07T11:33:57;17.70;84.40
22006;DHT22;11167;46.988;15.470;2023-08-07T11:35:59;17.70;84.50
22006;DHT22;11167;46.988;15.470;2023-08-07T11:38:00;17.70;84.50
22006;DHT22;11167;46.988;15.470;2023-08-07T11:40:08;17.70;84.60
22006;DHT22;11167;46.988;15.470;2023-08-07T11:42:15;17.80;84.60
22006;DHT22;11167;46.988;15.470;2023-08-07T11:44:14;17.80;84.60
22006;DHT22;11167;46.988;15.470;2023-08-07T11:46:18;17.80;84.60
22006;DHT22;11167;46.988;15.470;2023-08-07T11:48:26;17.80;82.50
22006;DHT22;11167;46.988;15.470;2023-08-07T11:50:33;17.80;84.50
22006;DHT22;11167;46.988;15.470;2023-08-07T11:52:33;17.90;84.60
22006;DHT22;11167;46.988;15.470;2023-08-07T11:54:35;17.90;84.50
22006;DHT22;11167;46.988;15.470;2023-08-07T11:56:36;17.90;84.60
22006;DHT22;11167;46.988;15.470;2023-08-07T11:58:43;17.90;84.60
22006;DHT22;11167;46.988;15.470;2023-08-07T12:00:47;17.90;84.40
22006;DHT22;11167;46.988;15.470;2023-08-07T12:03:22;18.00;84.40
22006;DHT22;11167;46.988;15.470;2023-08-07T12:05:13;18.10;84.30
22006;DHT22;11167;46.988;15.470;2023-08-07T12:07:17;18.00;84.00
22006;DHT22;11167;46.988;15.470;2023-08-07T12:09:20;18.00;83.70
22006;DHT22;11167;46.988;15.470;2023-08-07T12:11:21;18.00;83.70
22006;DHT22;11167;46.988;15.470;2023-08-07T12:13:24;18.00;83.80
22006;DHT22;11167;46.988;15.470;2023-08-07T12:15:28;18.00;83.80
22006;DHT22;11167;46.988;15.470;2023-08-07T12:17:31;18.10;84.00
22006;DHT22;11167;46.988;15.470;2023-08-07T12:19:41;18.10;84.00
22006;DHT22;11167;46.988;15.470;2023-08-07T12:21:44;18.10;84.00
22006;DHT22;11167;46.988;15.470;2023-08-07T12:23:45;18.10;84.00
22006;DHT22;11167;46.988;15.470;2023-08-07T12:25:50;18.10;84.10
22006;DHT22;11167;46.988;15.470;2023-08-07T12:27:51;18.10;84.00
22006;DHT22;11167;46.988;15.470;2023-08-07T12:29:54;18.10;84.00
22006;DHT22;11167;46.988;15.470;2023-08-07T12:31:55;18.20;84.00
22006;DHT22;11167;46.988;15.470;2023-08-07T12:33:56;18.20;83.90
22006;DHT22;11167;46.988;15.470;2023-08-07T12:35:58;18.20;83.70
22006;DHT22;11167;46.988;15.470;2023-08-07T12:38:00;18.20;83.70
22006;DHT22;11167;46.988;15.470;2023-08-07T12:40:04;18.20;83.60
22006;DHT22;11167;46.988;15.470;2023-08-07T12:42:07;18.20;83.70
22006;DHT22;11167;46.988;15.470;2023-08-07T12:44:08;18.30;83.70
22006;DHT22;11167;46.988;15.470;2023-08-07T12:46:09;18.30;83.90
22006;DHT22;11167;46.988;15.470;2023-08-07T12:48:10;18.30;83.80
22006;DHT22;11167;46.988;15.470;2023-08-07T12:50:11;18.30;83.70
22006;DHT22;11167;46.988;15.470;2023-08-07T12:52:13;18.30;83.70
22006;DHT22;11167;46.988;15.470;2023-08-07T12:54:14;18.30;83.70
22006;DHT22;11167;46.988;15.470;2023-08-07T12:56:15;18.40;83.70
22006;DHT22;11167;46.988;15.470;2023-08-07T12:58:16;18.40;83.70
22006;DHT22;11167;46.988;15.470;2023-08-07T13:00:20;18.40;83.70
22006;DHT22;11167;46.988;15.470;2023-08-07T13:02:21;18.40;83.50
22006;DHT22;11167;46.988;15.470;2023-08-07T13:04:22;18.40;83.70
22006;DHT22;11167;46.988;15.470;2023-08-07T13:06:23;18.40;83.70
22006;DHT22;11167;46.988;15.470;2023-08-07T13:08:25;18.50;83.80
22006;DHT22;11167;46.988;15.470;2023-08-07T13:10:26;18.50;83.70
22006;DHT22;11167;46.988;15.470;2023-08-07T13:12:34;18.50;83.70
22006;DHT22;11167;46.988;15.470;2023-08-07T13:14:36;18.50;83.70
22006;DHT22;11167;46.988;15.470;2023-08-07T13:16:37;18.50;83.70
22006;DHT22;11167;46.988;15.470;2023-08-07T13:18:38;18.50;83.70
22006;DHT22;11167;46.988;15.470;2023-08-07T13:20:39;18.50;83.70
22006;DHT22;11167;46.988;15.470;2023-08-07T13:22:41;18.60;83.70
22006;DHT22;11167;46.988;15.470;2023-08-07T13:24:43;18.60;83.70
22006;DHT22;11167;46.988;15.470;2023-08-07T13:26:44;18.60;83.60